createdAt,value
2019-03-30T00:00:58.456Z,1020.08
2019-03-30T00:01:58.450Z,1020.13
2019-03-30T00:02:58.441Z,1020.10
2019-03-30T00:03:58.430Z,1020.08
2019-03-30T00:04:58.423Z,1020.06
2019-03-30T00:05:58.412Z,1020.11
2019-03-30T00:06:58.404Z,1020.11
2019-03-30T00:07:58.404Z,1020.06
2019-03-30T00:08:58.397Z,1020.03
2019-03-30T00:09:58.383Z,1020.07
2019-03-30T00:10:58.377Z,1020.03
2019-03-30T00:11:58.372Z,1020.09
2019-03-30T00:12:58.367Z,1020.06
2019-03-30T00:13:58.362Z,1020.05
2019-03-30T00:14:58.353Z,1020.00
2019-03-30T00:15:58.350Z,1020.02
2019-03-30T00:16:58.339Z,1019.98
2019-03-30T00:17:58.327Z,1020.01
2019-03-30T00:18:58.321Z,1020.00
2019-03-30T00:19:58.317Z,1019.98
2019-03-30T00:20:58.313Z,1019.96
2019-03-30T00:21:58.301Z,1019.98
2019-03-30T00:22:58.290Z,1019.96
2019-03-30T00:23:58.282Z,1019.95
2019-03-30T00:24:58.272Z,1019.96
2019-03-30T00:25:58.270Z,1019.95
2019-03-30T00:26:58.262Z,1019.95
2019-03-30T00:27:58.251Z,1019.94
2019-03-30T00:28:58.243Z,1019.95
2019-03-30T00:29:58.241Z,1019.92
2019-03-30T00:30:58.238Z,1019.88
2019-03-30T00:31:58.227Z,1019.91
2019-03-30T00:32:58.219Z,1019.90
2019-03-30T00:33:58.215Z,1019.93
2019-03-30T00:34:58.204Z,1019.88
2019-03-30T00:35:58.194Z,1019.92
2019-03-30T00:36:58.186Z,1019.83
2019-03-30T00:37:58.176Z,1019.83
2019-03-30T00:38:58.168Z,1019.84
2019-03-30T00:39:58.165Z,1019.84
2019-03-30T00:40:58.159Z,1019.80
2019-03-30T00:41:58.148Z,1019.80
2019-03-30T00:42:58.136Z,1019.83
2019-03-30T00:43:58.134Z,1019.86
2019-03-30T00:44:58.127Z,1019.82
2019-03-30T00:45:58.122Z,1019.80
2019-03-30T00:46:58.113Z,1019.81
2019-03-30T00:47:58.102Z,1019.80
2019-03-30T00:48:58.094Z,1019.80
2019-03-30T00:49:58.084Z,1019.75
2019-03-30T00:50:58.075Z,1019.80
2019-03-30T00:51:58.076Z,1019.77
2019-03-30T00:52:58.068Z,1019.79
2019-03-30T00:53:58.062Z,1019.77
2019-03-30T00:54:58.053Z,1019.77
2019-03-30T00:55:58.040Z,1019.71
2019-03-30T00:56:58.036Z,1019.76
2019-03-30T00:57:58.034Z,1019.72
2019-03-30T00:58:58.031Z,1019.74
2019-03-30T00:59:58.011Z,1019.68
2019-03-30T01:00:58.003Z,1019.70
2019-03-30T01:01:57.992Z,1019.70
2019-03-30T01:02:57.985Z,1019.65
2019-03-30T01:03:57.982Z,1019.70
2019-03-30T01:04:57.976Z,1019.60
2019-03-30T01:05:58.346Z,1019.67
2019-03-30T01:06:57.958Z,1019.57
2019-03-30T01:07:57.944Z,1019.56
2019-03-30T01:08:57.943Z,1019.58
2019-03-30T01:09:57.932Z,1019.62
2019-03-30T01:10:57.923Z,1019.54
2019-03-30T01:11:57.920Z,1019.59
2019-03-30T01:12:57.912Z,1019.53
2019-03-30T01:13:57.901Z,1019.46
2019-03-30T01:14:57.892Z,1019.49
2019-03-30T01:15:57.889Z,1019.55
2019-03-30T01:16:57.881Z,1019.48
2019-03-30T01:17:57.871Z,1019.50
2019-03-30T01:18:57.861Z,1019.47
2019-03-30T01:20:03.081Z,1019.49
2019-03-30T01:20:57.842Z,1019.42
2019-03-30T01:21:57.834Z,1019.45
2019-03-30T01:22:57.827Z,1019.43
2019-03-30T01:23:57.822Z,1019.44
2019-03-30T01:24:57.815Z,1019.43
2019-03-30T01:25:57.810Z,1019.39
2019-03-30T01:26:57.800Z,1019.39
2019-03-30T01:27:57.789Z,1019.41
2019-03-30T01:28:57.780Z,1019.43
2019-03-30T01:29:57.777Z,1019.37
2019-03-30T01:30:57.769Z,1019.39
2019-03-30T01:31:57.768Z,1019.38
2019-03-30T01:32:57.749Z,1019.35
2019-03-30T01:33:57.742Z,1019.32
2019-03-30T01:34:57.729Z,1019.34
2019-03-30T01:35:57.725Z,1019.32
2019-03-30T01:36:57.718Z,1019.34
2019-03-30T01:37:57.711Z,1019.31
2019-03-30T01:38:57.700Z,1019.38
2019-03-30T01:39:57.689Z,1019.35
2019-03-30T01:40:57.681Z,1019.37
2019-03-30T01:41:57.675Z,1019.34
2019-03-30T01:42:57.668Z,1019.35
2019-03-30T01:43:57.663Z,1019.42
2019-03-30T01:44:57.656Z,1019.35
2019-03-30T01:45:57.642Z,1019.35
2019-03-30T01:46:57.633Z,1019.30
2019-03-30T01:47:57.630Z,1019.26
2019-03-30T01:48:57.624Z,1019.26
2019-03-30T01:49:57.613Z,1019.24
2019-03-30T01:50:57.606Z,1019.29
2019-03-30T01:51:57.592Z,1019.26
2019-03-30T01:52:57.588Z,1019.29
2019-03-30T01:53:57.585Z,1019.32
2019-03-30T01:54:57.575Z,1019.26
2019-03-30T01:55:57.565Z,1019.24
2019-03-30T01:56:57.555Z,1019.23
2019-03-30T01:57:57.545Z,1019.25
2019-03-30T01:58:57.537Z,1019.23
2019-03-30T01:59:57.535Z,1019.19
2019-03-30T02:00:57.526Z,1019.16
2019-03-30T02:01:57.514Z,1019.18
2019-03-30T02:02:57.505Z,1019.21
2019-03-30T02:03:57.503Z,1019.20
2019-03-30T02:04:57.495Z,1019.18
2019-03-30T02:05:57.489Z,1019.17
2019-03-30T02:06:57.481Z,1019.14
2019-03-30T02:07:57.470Z,1019.11
2019-03-30T02:08:57.462Z,1019.12
2019-03-30T02:09:57.454Z,1019.10
2019-03-30T02:10:57.448Z,1019.09
2019-03-30T02:11:57.442Z,1019.08
2019-03-30T02:12:57.435Z,1019.07
2019-03-30T02:13:57.426Z,1019.05
2019-03-30T02:14:57.417Z,1019.02
2019-03-30T02:15:57.406Z,1019.04
2019-03-30T02:16:57.397Z,1019.04
2019-03-30T02:17:57.394Z,1019.02
2019-03-30T02:18:57.386Z,1019.02
2019-03-30T02:19:57.373Z,1019.00
2019-03-30T02:20:57.368Z,1018.99
2019-03-30T02:21:57.364Z,1019.00
2019-03-30T02:22:57.353Z,1019.00
2019-03-30T02:23:57.350Z,1019.04
2019-03-30T02:24:57.342Z,1019.03
2019-03-30T02:25:57.403Z,1019.04
2019-03-30T02:26:57.326Z,1019.02
2019-03-30T02:27:57.316Z,1018.99
2019-03-30T02:28:57.314Z,1018.97
2019-03-30T02:29:57.298Z,1019.01
2019-03-30T02:30:57.289Z,1018.97
2019-03-30T02:31:57.287Z,1018.98
2019-03-30T02:32:57.284Z,1018.98
2019-03-30T02:33:57.279Z,1018.98
2019-03-30T02:34:57.261Z,1019.00
2019-03-30T02:35:57.259Z,1018.96
2019-03-30T02:36:57.250Z,1019.01
2019-03-30T02:37:57.246Z,1019.00
2019-03-30T02:38:57.236Z,1018.93
2019-03-30T02:39:57.225Z,1018.96
2019-03-30T02:40:57.217Z,1018.94
2019-03-30T02:41:57.214Z,1018.93
2019-03-30T02:42:57.202Z,1018.95
2019-03-30T02:43:57.203Z,1018.97
2019-03-30T02:44:57.197Z,1018.96
2019-03-30T02:45:57.183Z,1018.92
2019-03-30T02:46:57.174Z,1018.94
2019-03-30T02:47:57.159Z,1018.96
2019-03-30T02:48:57.160Z,1018.94
2019-03-30T02:49:57.152Z,1018.94
2019-03-30T02:50:57.142Z,1018.94
2019-03-30T02:51:57.133Z,1018.92
2019-03-30T02:52:57.124Z,1018.92
2019-03-30T02:53:57.121Z,1018.97
2019-03-30T02:54:57.119Z,1018.94
2019-03-30T02:55:57.106Z,1018.93
2019-03-30T02:56:57.099Z,1018.96
2019-03-30T02:57:57.091Z,1018.95
2019-03-30T02:58:57.080Z,1018.91
2019-03-30T02:59:57.071Z,1018.94
2019-03-30T03:00:57.068Z,1018.87
2019-03-30T03:01:57.056Z,1018.90
2019-03-30T03:02:57.049Z,1018.91
2019-03-30T03:03:57.045Z,1018.90
2019-03-30T03:04:57.039Z,1018.88
2019-03-30T03:05:57.031Z,1018.86
2019-03-30T03:06:57.017Z,1018.91
2019-03-30T03:07:57.014Z,1018.87
2019-03-30T03:08:57.012Z,1018.85
2019-03-30T03:09:56.998Z,1018.81
2019-03-30T03:10:56.990Z,1018.80
2019-03-30T03:11:56.997Z,1018.84
2019-03-30T03:12:56.972Z,1018.81
2019-03-30T03:13:56.961Z,1018.78
2019-03-30T03:14:56.958Z,1018.74
2019-03-30T03:15:56.959Z,1018.78
2019-03-30T03:16:56.944Z,1018.74
2019-03-30T03:17:56.940Z,1018.74
2019-03-30T03:18:56.930Z,1018.75
2019-03-30T03:19:56.920Z,1018.73
2019-03-30T03:21:07.390Z,1018.76
2019-03-30T03:21:56.917Z,1018.72
2019-03-30T03:22:56.898Z,1018.73
2019-03-30T03:23:56.920Z,1018.68
2019-03-30T03:24:56.880Z,1018.76
2019-03-30T03:25:56.870Z,1018.72
2019-03-30T03:26:56.867Z,1018.67
2019-03-30T03:27:56.873Z,1018.69
2019-03-30T03:28:56.852Z,1018.71
2019-03-30T03:29:56.844Z,1018.67
2019-03-30T03:30:56.840Z,1018.70
2019-03-30T03:31:56.823Z,1018.70
2019-03-30T03:32:56.815Z,1018.67
2019-03-30T03:33:56.811Z,1018.69
2019-03-30T03:34:56.813Z,1018.66
2019-03-30T03:35:56.802Z,1018.68
2019-03-30T03:36:56.792Z,1018.70
2019-03-30T03:37:56.784Z,1018.72
2019-03-30T03:38:56.773Z,1018.67
2019-03-30T03:39:56.769Z,1018.67
2019-03-30T03:40:56.762Z,1018.65
2019-03-30T03:41:56.754Z,1018.67
2019-03-30T03:42:56.742Z,1018.62
2019-03-30T03:43:56.732Z,1018.67
2019-03-30T03:44:56.731Z,1018.64
2019-03-30T03:45:56.717Z,1018.63
2019-03-30T03:46:56.711Z,1018.61
2019-03-30T03:47:56.709Z,1018.59
2019-03-30T03:48:56.708Z,1018.60
2019-03-30T03:49:56.698Z,1018.58
2019-03-30T03:50:56.686Z,1018.59
2019-03-30T03:51:56.671Z,1018.54
2019-03-30T03:52:56.668Z,1018.54
2019-03-30T03:53:56.660Z,1018.56
2019-03-30T03:54:56.655Z,1018.55
2019-03-30T03:55:56.641Z,1018.49
2019-03-30T03:56:56.691Z,1018.45
2019-03-30T03:57:56.621Z,1018.49
2019-03-30T03:58:56.613Z,1018.45
2019-03-30T03:59:56.608Z,1018.42
2019-03-30T04:00:56.603Z,1018.46
2019-03-30T04:01:56.596Z,1018.48
2019-03-30T04:02:56.591Z,1018.47
2019-03-30T04:03:56.576Z,1018.45
2019-03-30T04:04:56.569Z,1018.46
2019-03-30T04:05:56.568Z,1018.46
2019-03-30T04:06:56.550Z,1018.45
2019-03-30T04:07:56.551Z,1018.47
2019-03-30T04:08:56.540Z,1018.40
2019-03-30T04:09:56.526Z,1018.47
2019-03-30T04:10:56.524Z,1018.37
2019-03-30T04:11:56.516Z,1018.44
2019-03-30T04:12:56.510Z,1018.39
2019-03-30T04:13:56.506Z,1018.42
2019-03-30T04:14:56.497Z,1018.42
2019-03-30T04:15:56.484Z,1018.45
2019-03-30T04:16:56.476Z,1018.39
2019-03-30T04:17:56.467Z,1018.40
2019-03-30T04:18:56.458Z,1018.36
2019-03-30T04:19:56.459Z,1018.35
2019-03-30T04:20:56.450Z,1018.30
2019-03-30T04:21:56.436Z,1018.38
2019-03-30T04:22:56.434Z,1018.33
2019-03-30T04:23:56.416Z,1018.32
2019-03-30T04:24:56.409Z,1018.37
2019-03-30T04:25:56.405Z,1018.37
2019-03-30T04:26:56.404Z,1018.36
2019-03-30T04:27:56.386Z,1018.29
2019-03-30T04:28:56.388Z,1018.31
2019-03-30T04:29:56.372Z,1018.30
2019-03-30T04:30:56.363Z,1018.29
2019-03-30T04:31:56.362Z,1018.35
2019-03-30T04:32:56.355Z,1018.26
2019-03-30T04:33:56.347Z,1018.28
2019-03-30T04:34:56.338Z,1018.24
2019-03-30T04:35:56.326Z,1018.26
2019-03-30T04:36:56.327Z,1018.26
2019-03-30T04:37:56.308Z,1018.23
2019-03-30T04:38:56.308Z,1018.21
2019-03-30T04:39:56.297Z,1018.21
2019-03-30T04:40:56.289Z,1018.22
2019-03-30T04:41:56.276Z,1018.14
2019-03-30T04:42:56.266Z,1018.22
2019-03-30T04:43:56.267Z,1018.25
2019-03-30T04:44:56.255Z,1018.15
2019-03-30T04:45:56.251Z,1018.21
2019-03-30T04:46:56.242Z,1018.21
2019-03-30T04:47:56.231Z,1018.21
2019-03-30T04:48:56.226Z,1018.19
2019-03-30T04:49:56.215Z,1018.15
2019-03-30T04:50:56.208Z,1018.18
2019-03-30T04:51:57.632Z,1018.13
2019-03-30T04:52:56.195Z,1018.14
2019-03-30T04:53:56.185Z,1018.11
2019-03-30T04:54:56.176Z,1018.12
2019-03-30T04:55:56.164Z,1018.11
2019-03-30T04:56:56.162Z,1018.14
2019-03-30T04:57:57.747Z,1018.15
2019-03-30T04:58:56.145Z,1018.05
2019-03-30T04:59:56.133Z,1018.06
2019-03-30T05:00:56.127Z,1018.07
2019-03-30T05:01:56.121Z,1018.09
2019-03-30T05:02:56.197Z,1018.13
2019-03-30T05:03:56.113Z,1018.08
2019-03-30T05:04:56.103Z,1018.09
2019-03-30T05:05:56.095Z,1018.07
2019-03-30T05:06:56.083Z,1018.05
2019-03-30T05:07:56.069Z,1018.04
2019-03-30T05:08:56.064Z,1018.08
2019-03-30T05:09:56.059Z,1018.08
2019-03-30T05:10:56.054Z,1018.10
2019-03-30T05:11:56.045Z,1018.09
2019-03-30T05:12:56.037Z,1018.09
2019-03-30T05:13:56.025Z,1018.04
2019-03-30T05:14:56.017Z,1018.02
2019-03-30T05:15:56.014Z,1018.09
2019-03-30T05:16:56.007Z,1018.07
2019-03-30T05:17:55.996Z,1018.04
2019-03-30T05:18:55.987Z,1018.03
2019-03-30T05:19:55.976Z,1018.02
2019-03-30T05:20:55.966Z,1018.01
2019-03-30T05:21:55.964Z,1018.04
2019-03-30T05:22:55.951Z,1018.07
2019-03-30T05:23:55.948Z,1018.11
2019-03-30T05:24:55.940Z,1018.09
2019-03-30T05:25:55.936Z,1018.08
2019-03-30T05:26:55.927Z,1018.04
2019-03-30T05:27:55.914Z,1018.06
2019-03-30T05:28:55.907Z,1018.13
2019-03-30T05:29:55.906Z,1018.06
2019-03-30T05:30:55.895Z,1018.08
2019-03-30T05:31:55.885Z,1018.04
2019-03-30T05:33:05.512Z,1018.02
2019-03-30T05:33:55.874Z,1018.02
2019-03-30T05:34:55.858Z,1018.05
2019-03-30T05:35:55.855Z,1018.03
2019-03-30T05:36:55.849Z,1018.08
2019-03-30T05:37:55.841Z,1018.12
2019-03-30T05:38:55.832Z,1018.14
2019-03-30T05:39:55.820Z,1018.19
2019-03-30T05:40:55.811Z,1018.19
2019-03-30T05:41:55.809Z,1018.20
2019-03-30T05:42:55.800Z,1018.16
2019-03-30T05:43:55.796Z,1018.22
2019-03-30T05:44:57.795Z,1018.22
2019-03-30T05:45:55.780Z,1018.24
2019-03-30T05:46:55.770Z,1018.18
2019-03-30T05:47:55.767Z,1018.21
2019-03-30T05:48:55.760Z,1018.23
2019-03-30T05:49:55.751Z,1018.24
2019-03-30T05:50:55.826Z,1018.28
2019-03-30T05:51:55.734Z,1018.28
2019-03-30T05:52:55.728Z,1018.23
2019-03-30T05:53:55.720Z,1018.17
2019-03-30T05:54:55.714Z,1018.12
2019-03-30T05:55:55.713Z,1018.21
2019-03-30T05:56:55.708Z,1018.25
2019-03-30T05:57:55.704Z,1018.29
2019-03-30T05:58:55.696Z,1018.32
2019-03-30T05:59:56.277Z,1018.34
2019-03-30T06:00:55.680Z,1018.39
2019-03-30T06:01:55.679Z,1018.37
2019-03-30T06:02:55.673Z,1018.34
2019-03-30T06:03:55.663Z,1018.34
2019-03-30T06:04:55.658Z,1018.34
2019-03-30T06:05:55.651Z,1018.31
2019-03-30T06:06:55.651Z,1018.34
2019-03-30T06:07:55.645Z,1018.36
2019-03-30T06:08:55.639Z,1018.34
2019-03-30T06:09:55.636Z,1018.34
2019-03-30T06:10:55.632Z,1018.39
2019-03-30T06:11:55.623Z,1018.42
2019-03-30T06:12:55.617Z,1018.46
2019-03-30T06:13:55.617Z,1018.51
2019-03-30T06:14:55.611Z,1018.53
2019-03-30T06:15:55.611Z,1018.51
2019-03-30T06:16:55.606Z,1018.50
2019-03-30T06:17:55.600Z,1018.56
2019-03-30T06:18:55.596Z,1018.61
2019-03-30T06:19:55.597Z,1018.59
2019-03-30T06:20:55.594Z,1018.68
2019-03-30T06:21:55.589Z,1018.75
2019-03-30T06:22:55.585Z,1018.77
2019-03-30T06:23:55.579Z,1018.83
2019-03-30T06:24:55.577Z,1018.79
2019-03-30T06:25:55.576Z,1018.79
2019-03-30T06:26:55.572Z,1018.82
2019-03-30T06:27:55.576Z,1018.85
2019-03-30T06:28:55.573Z,1018.88
2019-03-30T06:29:55.573Z,1018.84
2019-03-30T06:30:55.572Z,1018.85
2019-03-30T06:31:55.567Z,1018.87
2019-03-30T06:32:55.568Z,1018.86
2019-03-30T06:33:55.568Z,1018.90
2019-03-30T06:34:55.565Z,1018.91
2019-03-30T06:35:55.562Z,1018.86
2019-03-30T06:36:55.560Z,1018.89
2019-03-30T06:37:55.558Z,1018.87
2019-03-30T06:38:55.558Z,1018.92
2019-03-30T06:39:55.559Z,1018.98
2019-03-30T06:40:55.560Z,1019.00
2019-03-30T06:41:55.560Z,1018.98
2019-03-30T06:42:55.633Z,1019.00
2019-03-30T06:43:55.554Z,1019.02
2019-03-30T06:44:55.554Z,1019.03
2019-03-30T06:45:55.555Z,1019.03
2019-03-30T06:46:55.555Z,1019.09
2019-03-30T06:47:55.559Z,1019.08
2019-03-30T06:48:55.560Z,1019.11
2019-03-30T06:49:55.557Z,1019.12
2019-03-30T06:50:55.556Z,1019.07
2019-03-30T06:51:55.562Z,1019.13
2019-03-30T06:52:58.107Z,1019.15
2019-03-30T06:53:55.560Z,1019.21
2019-03-30T06:54:55.561Z,1019.17
2019-03-30T06:55:55.555Z,1019.16
2019-03-30T06:56:55.557Z,1019.20
2019-03-30T06:57:55.557Z,1019.16
2019-03-30T06:58:55.558Z,1019.20
2019-03-30T06:59:55.563Z,1019.20
2019-03-30T07:00:55.565Z,1019.22
2019-03-30T07:01:55.568Z,1019.32
2019-03-30T07:02:55.568Z,1019.32
2019-03-30T07:03:55.567Z,1019.30
2019-03-30T07:04:55.567Z,1019.37
2019-03-30T07:05:55.576Z,1019.39
2019-03-30T07:06:55.574Z,1019.32
2019-03-30T07:07:55.571Z,1019.34
2019-03-30T07:08:55.574Z,1019.36
2019-03-30T07:09:55.572Z,1019.40
2019-03-30T07:10:55.572Z,1019.23
2019-03-30T07:11:55.580Z,1019.40
2019-03-30T07:12:55.590Z,1019.41
2019-03-30T07:13:55.588Z,1019.35
2019-03-30T07:14:55.587Z,1019.39
2019-03-30T07:15:55.582Z,1019.36
2019-03-30T07:16:55.641Z,1019.32
2019-03-30T07:17:55.586Z,1019.36
2019-03-30T07:18:55.584Z,1019.32
2019-03-30T07:19:55.593Z,1019.37
2019-03-30T07:20:55.592Z,1019.35
2019-03-30T07:21:55.604Z,1019.33
2019-03-30T07:22:55.592Z,1019.32
2019-03-30T07:23:55.602Z,1019.31
2019-03-30T07:24:55.602Z,1019.32
2019-03-30T07:25:55.605Z,1019.35
2019-03-30T07:26:55.605Z,1019.34
2019-03-30T07:27:55.605Z,1019.36
2019-03-30T07:28:55.609Z,1019.45
2019-03-30T07:29:55.611Z,1019.44
2019-03-30T07:30:55.612Z,1019.44
2019-03-30T07:31:55.619Z,1019.52
2019-03-30T07:32:55.620Z,1019.47
2019-03-30T07:33:55.621Z,1019.51
2019-03-30T07:34:55.626Z,1019.37
2019-03-30T07:35:55.623Z,1019.50
2019-03-30T07:36:55.628Z,1019.44
2019-03-30T07:37:55.633Z,1019.50
2019-03-30T07:38:55.635Z,1019.46
2019-03-30T07:39:55.635Z,1019.48
2019-03-30T07:40:55.640Z,1019.49
2019-03-30T07:41:55.644Z,1019.49
2019-03-30T07:42:55.648Z,1019.58
2019-03-30T07:43:55.655Z,1019.54
2019-03-30T07:44:55.661Z,1019.56
2019-03-30T07:45:55.665Z,1019.50
2019-03-30T07:46:55.667Z,1019.53
2019-03-30T07:47:55.668Z,1019.55
2019-03-30T07:48:55.671Z,1018.73
2019-03-30T07:49:55.673Z,1018.65
2019-03-30T07:50:55.678Z,1018.66
2019-03-30T07:51:55.689Z,1018.73
2019-03-30T07:52:55.691Z,1018.78
2019-03-30T07:53:55.694Z,1018.71
2019-03-30T07:54:55.696Z,1018.73
2019-03-30T07:56:07.669Z,1018.75
2019-03-30T07:57:04.974Z,1018.73
2019-03-30T07:57:55.730Z,1018.80
2019-03-30T07:58:55.728Z,1018.87
2019-03-30T07:59:55.721Z,1018.87
2019-03-30T08:00:55.727Z,1018.89
2019-03-30T08:01:55.730Z,1018.95
2019-03-30T08:02:55.737Z,1018.92
2019-03-30T08:03:55.748Z,1018.91
2019-03-30T08:04:55.750Z,1018.85
2019-03-30T08:05:55.753Z,1018.86
2019-03-30T08:06:55.756Z,1018.84
2019-03-30T08:07:55.764Z,1018.90
2019-03-30T08:08:55.764Z,1018.85
2019-03-30T08:09:55.776Z,1018.90
2019-03-30T08:10:55.781Z,1018.91
2019-03-30T08:11:55.784Z,1018.91
2019-03-30T08:12:55.801Z,1018.96
2019-03-30T08:13:55.798Z,1019.04
2019-03-30T08:14:55.804Z,1019.06
2019-03-30T08:15:55.815Z,1019.05
2019-03-30T08:16:55.820Z,1019.04
2019-03-30T08:17:55.825Z,1019.02
2019-03-30T08:18:55.832Z,1018.97
2019-03-30T08:19:55.833Z,1018.98
2019-03-30T08:20:55.843Z,1019.09
2019-03-30T08:21:55.850Z,1019.06
2019-03-30T08:22:55.858Z,1019.07
2019-03-30T08:23:55.868Z,1019.09
2019-03-30T08:24:55.876Z,1019.11
2019-03-30T08:25:55.880Z,1019.14
2019-03-30T08:26:55.885Z,1019.15
2019-03-30T08:27:55.899Z,1019.15
2019-03-30T08:28:55.904Z,1019.17
2019-03-30T08:29:55.910Z,1019.12
2019-03-30T08:30:55.917Z,1019.14
2019-03-30T08:31:55.921Z,1019.18
2019-03-30T08:32:55.931Z,1019.18
2019-03-30T08:33:55.937Z,1019.22
2019-03-30T08:34:55.945Z,1019.20
2019-03-30T08:35:55.958Z,1019.22
2019-03-30T08:36:59.126Z,1019.23
2019-03-30T08:37:55.976Z,1019.22
2019-03-30T08:38:55.985Z,1019.23
2019-03-30T08:39:55.990Z,1019.27
2019-03-30T08:40:55.999Z,1019.25
2019-03-30T08:41:56.010Z,1019.27
2019-03-30T08:42:56.022Z,1019.18
2019-03-30T08:43:56.024Z,1019.20
2019-03-30T08:44:56.042Z,1019.19
2019-03-30T08:45:56.042Z,1019.19
2019-03-30T08:46:56.047Z,1019.17
2019-03-30T08:47:56.063Z,1019.16
2019-03-30T08:48:56.071Z,1019.13
2019-03-30T08:49:56.081Z,1019.14
2019-03-30T08:50:56.092Z,1019.18
2019-03-30T08:51:56.094Z,1019.12
2019-03-30T08:52:56.109Z,1019.17
2019-03-30T08:53:56.116Z,1019.15
2019-03-30T08:54:56.125Z,1019.23
2019-03-30T08:55:56.147Z,1019.20
2019-03-30T08:56:56.151Z,1019.28
2019-03-30T08:57:56.155Z,1019.23
2019-03-30T08:58:56.164Z,1019.28
2019-03-30T08:59:56.178Z,1019.28
2019-03-30T09:00:56.189Z,1019.30
2019-03-30T09:01:56.196Z,1019.30
2019-03-30T09:02:56.206Z,1019.32
2019-03-30T09:03:56.213Z,1019.34
2019-03-30T09:04:56.224Z,1019.31
2019-03-30T09:05:56.238Z,1019.32
2019-03-30T09:06:56.245Z,1019.31
2019-03-30T09:07:56.262Z,1019.29
2019-03-30T09:08:56.275Z,1019.25
2019-03-30T09:09:56.285Z,1019.24
2019-03-30T09:10:56.302Z,1019.27
2019-03-30T09:11:56.307Z,1019.28
2019-03-30T09:12:56.325Z,1019.26
2019-03-30T09:13:56.337Z,1019.26
2019-03-30T09:14:56.342Z,1019.29
2019-03-30T09:15:56.351Z,1019.22
2019-03-30T09:16:56.362Z,1019.27
2019-03-30T09:17:56.381Z,1019.23
2019-03-30T09:18:56.384Z,1019.22
2019-03-30T09:19:56.401Z,1019.25
2019-03-30T09:20:56.416Z,1019.22
2019-03-30T09:21:56.428Z,1019.18
2019-03-30T09:22:56.440Z,1019.15
2019-03-30T09:24:08.840Z,1019.23
2019-03-30T09:24:56.461Z,1019.19
2019-03-30T09:25:56.470Z,1019.20
2019-03-30T09:26:56.488Z,1019.21
2019-03-30T09:27:56.499Z,1019.24
2019-03-30T09:28:56.515Z,1019.23
2019-03-30T09:29:56.521Z,1019.25
2019-03-30T09:30:56.531Z,1019.23
2019-03-30T09:31:56.632Z,1019.25
2019-03-30T09:32:56.568Z,1019.24
2019-03-30T09:33:56.577Z,1019.29
2019-03-30T09:34:56.590Z,1019.28
2019-03-30T09:35:56.599Z,1019.24
2019-03-30T09:36:56.620Z,1019.27
2019-03-30T09:37:56.630Z,1019.27
2019-03-30T09:38:56.639Z,1019.27
2019-03-30T09:39:56.655Z,1019.27
2019-03-30T09:40:56.667Z,1019.38
2019-03-30T09:41:56.678Z,1019.33
2019-03-30T09:42:56.691Z,1019.38
2019-03-30T09:43:56.699Z,1019.34
2019-03-30T09:44:56.713Z,1019.48
2019-03-30T09:45:56.731Z,1019.46
2019-03-30T09:46:56.744Z,1019.41
2019-03-30T09:47:56.753Z,1019.42
2019-03-30T09:48:56.767Z,1019.34
2019-03-30T09:49:56.783Z,1019.35
2019-03-30T09:50:56.795Z,1019.36
2019-03-30T09:51:56.813Z,1019.37
2019-03-30T09:52:56.827Z,1019.38
2019-03-30T09:53:56.840Z,1019.40
2019-03-30T09:54:56.854Z,1019.35
2019-03-30T09:55:56.876Z,1019.31
2019-03-30T09:56:56.879Z,1019.21
2019-03-30T09:57:56.890Z,1019.10
2019-03-30T09:58:56.902Z,1018.99
2019-03-30T09:59:56.923Z,1018.95
2019-03-30T10:00:56.935Z,1018.97
2019-03-30T10:01:56.944Z,1018.91
2019-03-30T10:02:56.962Z,1018.88
2019-03-30T10:03:56.976Z,1018.76
2019-03-30T10:04:56.993Z,1018.79
2019-03-30T10:05:57.010Z,1018.77
2019-03-30T10:06:57.023Z,1018.74
2019-03-30T10:07:57.084Z,1018.75
2019-03-30T10:08:57.049Z,1018.70
2019-03-30T10:09:57.065Z,1018.71
2019-03-30T10:10:57.077Z,1018.70
2019-03-30T10:11:57.100Z,1018.67
2019-03-30T10:12:57.113Z,1018.64
2019-03-30T10:13:57.124Z,1018.66
2019-03-30T10:14:57.141Z,1018.68
2019-03-30T10:15:57.149Z,1018.63
2019-03-30T10:16:57.167Z,1018.62
2019-03-30T10:17:57.184Z,1018.70
2019-03-30T10:18:57.199Z,1018.55
2019-03-30T10:20:04.280Z,1018.63
2019-03-30T10:20:57.224Z,1018.60
2019-03-30T10:21:57.243Z,1018.57
2019-03-30T10:22:57.260Z,1018.53
2019-03-30T10:23:57.276Z,1018.53
2019-03-30T10:24:58.531Z,1018.54
2019-03-30T10:25:57.306Z,1018.53
2019-03-30T10:26:57.319Z,1018.55
2019-03-30T10:27:57.332Z,1018.55
2019-03-30T10:28:57.347Z,1018.46
2019-03-30T10:29:57.367Z,1018.47
2019-03-30T10:30:57.378Z,1018.45
2019-03-30T10:31:59.914Z,1018.45
2019-03-30T10:32:57.416Z,1018.42
2019-03-30T10:33:57.429Z,1018.45
2019-03-30T10:34:57.436Z,1018.45
2019-03-30T10:35:57.456Z,1018.40
2019-03-30T10:36:57.472Z,1018.44
2019-03-30T10:37:57.484Z,1018.49
2019-03-30T10:38:57.501Z,1018.48
2019-03-30T10:39:57.511Z,1018.44
2019-03-30T10:40:57.528Z,1018.44
2019-03-30T10:41:57.540Z,1018.42
2019-03-30T10:42:57.556Z,1018.35
2019-03-30T10:43:57.575Z,1018.33
2019-03-30T10:44:57.590Z,1018.34
2019-03-30T10:45:57.610Z,1018.39
2019-03-30T10:46:57.623Z,1018.35
2019-03-30T10:47:57.637Z,1018.33
2019-03-30T10:48:57.650Z,1018.32
2019-03-30T10:49:57.667Z,1018.31
2019-03-30T10:50:57.683Z,1018.29
2019-03-30T10:51:57.694Z,1018.35
2019-03-30T10:52:57.709Z,1018.29
2019-03-30T10:53:57.740Z,1018.30
2019-03-30T10:54:57.735Z,1018.28
2019-03-30T10:55:57.756Z,1018.29
2019-03-30T10:56:57.769Z,1018.28
2019-03-30T10:57:58.765Z,1018.19
2019-03-30T10:58:57.799Z,1018.23
2019-03-30T10:59:57.809Z,1018.23
2019-03-30T11:00:57.824Z,1018.20
2019-03-30T11:01:57.841Z,1018.14
2019-03-30T11:02:57.855Z,1018.15
2019-03-30T11:03:57.874Z,1018.16
2019-03-30T11:04:57.888Z,1018.14
2019-03-30T11:05:57.898Z,1018.12
2019-03-30T11:06:57.913Z,1018.10
2019-03-30T11:07:57.929Z,1018.07
2019-03-30T11:08:57.945Z,1018.06
2019-03-30T11:09:57.958Z,1018.10
2019-03-30T11:10:57.969Z,1018.14
2019-03-30T11:11:57.983Z,1018.09
2019-03-30T11:12:57.994Z,1018.06
2019-03-30T11:13:58.007Z,1018.04
2019-03-30T11:14:58.021Z,1018.06
2019-03-30T11:15:58.040Z,1017.99
2019-03-30T11:16:58.054Z,1018.02
2019-03-30T11:17:58.069Z,1017.99
2019-03-30T11:18:58.083Z,1017.94
2019-03-30T11:19:58.092Z,1018.00
2019-03-30T11:20:58.183Z,1018.01
2019-03-30T11:21:58.127Z,1018.05
2019-03-30T11:22:58.141Z,1018.10
2019-03-30T11:23:58.149Z,1018.07
2019-03-30T11:25:07.253Z,1018.02
2019-03-30T11:25:58.176Z,1018.03
2019-03-30T11:26:58.188Z,1017.98
2019-03-30T11:27:58.204Z,1017.96
2019-03-30T11:28:58.220Z,1017.85
2019-03-30T11:29:58.235Z,1017.79
2019-03-30T11:30:58.247Z,1017.81
2019-03-30T11:31:58.257Z,1017.65
2019-03-30T11:32:58.302Z,1017.63
2019-03-30T11:33:58.278Z,1017.61
2019-03-30T11:34:58.291Z,1017.51
2019-03-30T11:35:58.308Z,1017.52
2019-03-30T11:36:58.321Z,1017.54
2019-03-30T11:37:58.331Z,1017.54
2019-03-30T11:38:58.336Z,1017.58
2019-03-30T11:39:58.352Z,1017.49
2019-03-30T11:40:58.364Z,1017.55
2019-03-30T11:41:58.375Z,1017.49
2019-03-30T11:42:58.383Z,1017.49
2019-03-30T11:43:58.387Z,1017.48
2019-03-30T11:44:58.397Z,1017.47
2019-03-30T11:45:58.405Z,1017.39
2019-03-30T11:46:58.414Z,1017.35
2019-03-30T11:47:58.425Z,1017.40
2019-03-30T11:48:58.436Z,1017.36
2019-03-30T11:49:58.438Z,1017.33
2019-03-30T11:50:58.443Z,1017.34
2019-03-30T11:51:58.446Z,1017.31
2019-03-30T11:52:58.452Z,1017.28
2019-03-30T11:53:58.464Z,1017.33
2019-03-30T11:54:58.471Z,1017.24
2019-03-30T11:55:58.471Z,1017.27
2019-03-30T11:56:58.477Z,1017.18
2019-03-30T11:57:58.488Z,1017.20
2019-03-30T11:58:58.491Z,1017.28
2019-03-30T11:59:58.503Z,1017.19
2019-03-30T12:00:58.506Z,1017.20
2019-03-30T12:01:58.510Z,1017.15
2019-03-30T12:02:58.517Z,1017.17
2019-03-30T12:03:58.516Z,1017.15
2019-03-30T12:04:58.528Z,1017.12
2019-03-30T12:05:58.523Z,1017.07